Time,TemperatureF,DewpointF,PressureIn,WindDirection,WindDirectionDegrees,WindSpeedMPH,WindSpeedGustMPH,Humidity,HourlyPrecipIn,Conditions,Clouds,dailyrainin,SoftwareType,DateUTC
2013-09-02 00:11:00,71.1,70.8,29.74,NE,45,2.2,-999.0,99,-99.99,,,0.00,Acu-Link.com,2013-09-02 04:11:00,
2013-09-02 00:26:00,70.9,70.6,29.74,NNW,337,0.0,-999.0,99,-99.99,,,0.00,Acu-Link.com,2013-09-02 04:26:00,
2013-09-02 00:41:00,70.9,70.6,29.74,East,90,0.0,-999.0,99,-99.99,,,0.00,Acu-Link.com,2013-09-02 04:41:00,
2013-09-02 00:56:00,71.2,70.9,29.73,NNE,22,1.7,-999.0,99,-99.99,,,0.00,Acu-Link.com,2013-09-02 04:56:00,
2013-09-02 01:11:00,71.4,71.1,29.73,ESE,112,0.0,-999.0,99,-99.99,,,0.00,Acu-Link.com,2013-09-02 05:11:00,
2013-09-02 01:26:00,71.4,71.1,29.73,ESE,112,0.0,-999.0,99,-99.99,,,0.00,Acu-Link.com,2013-09-02 05:26:00,
2013-09-02 01:41:00,71.2,70.9,29.73,South,180,0.0,-999.0,99,-99.99,,,0.00,Acu-Link.com,2013-09-02 05:41:00,
2013-09-02 01:57:00,71.2,70.9,29.72,SSE,157,0.0,-999.0,99,-99.99,,,0.00,Acu-Link.com,2013-09-02 05:57:00,
2013-09-02 02:12:00,71.4,71.1,29.72,South,180,2.7,-999.0,99,-99.99,,,0.00,Acu-Link.com,2013-09-02 06:12:00,
2013-09-02 02:27:00,71.6,71.3,29.71,SSW,202,2.7,-999.0,99,-99.99,,,0.00,Acu-Link.com,2013-09-02 06:27:00,
2013-09-02 02:42:00,71.6,71.3,29.70,SW,225,0.0,-999.0,99,-99.99,,,0.00,Acu-Link.com,2013-09-02 06:42:00,
2013-09-02 02:57:00,71.4,71.1,29.71,ESE,112,0.0,-999.0,99,-99.99,,,0.00,Acu-Link.com,2013-09-02 06:57:00,
2013-09-02 03:12:00,71.4,71.1,29.71,NNE,22,1.7,-999.0,99,-99.99,,,0.00,Acu-Link.com,2013-09-02 07:12:00,
2013-09-02 03:27:00,71.2,70.9,29.71,East,90,0.0,-999.0,99,-99.99,,,0.00,Acu-Link.com,2013-09-02 07:27:00,
2013-09-02 03:42:00,71.2,70.9,29.71,NNW,337,0.0,-999.0,99,-99.99,,,0.00,Acu-Link.com,2013-09-02 07:42:00,
2013-09-02 03:57:00,71.2,70.9,29.71,NNE,22,1.1,-999.0,99,-99.99,,,0.01,Acu-Link.com,2013-09-02 07:57:00,
2013-09-02 04:13:00,71.2,70.9,29.71,East,90,0.0,-999.0,99,-99.99,,,0.04,Acu-Link.com,2013-09-02 08:13:00,
2013-09-02 04:29:00,71.2,70.9,29.71,East,90,0.0,-999.0,99,-99.99,,,0.04,Acu-Link.com,2013-09-02 08:29:00,
2013-09-02 04:45:00,71.2,70.9,29.70,SE,135,1.1,-999.0,99,-99.99,,,0.04,Acu-Link.com,2013-09-02 08:45:00,
2013-09-02 05:00:00,71.1,70.8,29.70,ESE,112,2.7,-999.0,99,-99.99,,,0.04,Acu-Link.com,2013-09-02 09:00:00,
2013-09-02 05:15:00,71.2,70.9,29.70,SSE,157,0.0,-999.0,99,-99.99,,,0.04,Acu-Link.com,2013-09-02 09:15:00,
2013-09-02 05:30:00,71.2,70.9,29.70,West,270,0.0,-999.0,99,-99.99,,,0.04,Acu-Link.com,2013-09-02 09:30:00,
2013-09-02 05:45:00,71.4,71.1,29.70,WSW,247,0.0,-999.0,99,-99.99,,,0.04,Acu-Link.com,2013-09-02 09:45:00,
2013-09-02 06:00:00,71.4,71.1,29.70,SE,135,3.2,-999.0,99,-99.99,,,0.04,Acu-Link.com,2013-09-02 10:00:00,
2013-09-02 06:15:00,71.2,70.9,29.70,South,180,1.7,-999.0,99,-99.99,,,0.07,Acu-Link.com,2013-09-02 10:15:00,
2013-09-02 06:30:00,71.2,70.9,29.70,SSE,157,0.0,-999.0,99,-99.99,,,0.10,Acu-Link.com,2013-09-02 10:30:00,
2013-09-02 06:46:00,71.4,71.1,29.72,ENE,67,2.7,-999.0,99,-99.99,,,0.10,Acu-Link.com,2013-09-02 10:46:00,
2013-09-02 07:01:00,71.4,71.1,29.73,SSE,157,4.2,-999.0,99,-99.99,,,0.10,Acu-Link.com,2013-09-02 11:01:00,
2013-09-02 07:16:00,70.3,70.0,29.71,SSW,202,1.7,-999.0,99,-99.99,,,0.17,Acu-Link.com,2013-09-02 11:16:00,
2013-09-02 07:31:00,69.6,69.3,29.71,ENE,67,2.2,-999.0,99,-99.99,,,0.24,Acu-Link.com,2013-09-02 11:31:00,
2013-09-02 07:46:00,69.6,69.3,29.70,NE,45,0.0,-999.0,99,-99.99,,,0.30,Acu-Link.com,2013-09-02 11:46:00,
2013-09-02 08:01:00,69.6,69.3,29.71,WSW,247,1.7,-999.0,99,-99.99,,,0.30,Acu-Link.com,2013-09-02 12:01:00,
2013-09-02 08:16:00,69.6,69.3,29.69,ESE,112,2.2,-999.0,99,-99.99,,,0.30,Acu-Link.com,2013-09-02 12:16:00,
2013-09-02 08:31:00,69.8,69.5,29.68,SW,225,0.0,-999.0,99,-99.99,,,0.31,Acu-Link.com,2013-09-02 12:31:00,
2013-09-02 08:46:00,70.0,69.7,29.69,South,180,2.7,-999.0,99,-99.99,,,0.32,Acu-Link.com,2013-09-02 12:46:00,
2013-09-02 09:01:00,72.9,72.3,29.70,ESE,112,4.7,-999.0,98,-99.99,,,0.32,Acu-Link.com,2013-09-02 13:01:00,
2013-09-02 09:17:00,73.9,73.0,29.68,SSW,202,2.7,-999.0,97,-99.99,,,0.32,Acu-Link.com,2013-09-02 13:17:00,
2013-09-02 09:32:00,74.1,73.2,29.69,WSW,247,5.8,-999.0,97,-99.99,,,0.32,Acu-Link.com,2013-09-02 13:32:00,
2013-09-02 09:47:00,73.9,73.0,29.69,SSW,202,4.7,-999.0,97,-99.99,,,0.32,Acu-Link.com,2013-09-02 13:47:00,
2013-09-02 10:02:00,73.4,72.8,29.69,South,180,5.8,-999.0,98,-99.99,,,0.32,Acu-Link.com,2013-09-02 14:02:00,
2013-09-02 10:17:00,73.8,72.9,29.69,SSE,157,2.7,-999.0,97,-99.99,,,0.32,Acu-Link.com,2013-09-02 14:17:00,
2013-09-02 10:32:00,74.7,73.5,29.69,South,180,2.7,-999.0,96,-99.99,,,0.32,Acu-Link.com,2013-09-02 14:32:00,
2013-09-02 10:47:00,75.9,74.4,29.70,SW,225,2.2,-999.0,95,-99.99,,,0.32,Acu-Link.com,2013-09-02 14:47:00,
2013-09-02 11:02:00,78.6,76.1,29.68,SSW,202,3.2,-999.0,92,-99.99,,,0.32,Acu-Link.com,2013-09-02 15:02:00,
2013-09-02 11:17:00,78.3,75.8,29.68,East,90,4.2,-999.0,92,-99.99,,,0.32,Acu-Link.com,2013-09-02 15:17:00,
2013-09-02 11:33:00,79.0,76.5,29.67,ESE,112,2.2,-999.0,92,-99.99,,,0.32,Acu-Link.com,2013-09-02 15:33:00,
2013-09-02 11:48:00,79.5,77.0,29.68,SSW,202,2.7,-999.0,92,-99.99,,,0.32,Acu-Link.com,2013-09-02 15:48:00,
2013-09-02 12:03:00,79.3,76.1,29.68,South,180,3.2,-999.0,90,-99.99,,,0.32,Acu-Link.com,2013-09-02 16:03:00,
2013-09-02 12:18:00,81.9,77.6,29.67,East,90,5.3,-999.0,87,-99.99,,,0.32,Acu-Link.com,2013-09-02 16:18:00,
2013-09-02 12:33:00,82.6,77.6,29.66,South,180,4.7,-999.0,85,-99.99,,,0.32,Acu-Link.com,2013-09-02 16:33:00,
2013-09-02 12:48:00,80.1,76.2,29.66,South,180,4.7,-999.0,88,-99.99,,,0.32,Acu-Link.com,2013-09-02 16:48:00,
2013-09-02 13:03:00,81.0,76.8,29.66,South,180,6.8,-999.0,87,-99.99,,,0.32,Acu-Link.com,2013-09-02 17:03:00,
2013-09-02 13:18:00,80.4,76.5,29.65,SE,135,5.3,-999.0,88,-99.99,,,0.32,Acu-Link.com,2013-09-02 17:18:00,
2013-09-02 13:33:00,79.9,76.7,29.64,SSW,202,3.7,-999.0,90,-99.99,,,0.32,Acu-Link.com,2013-09-02 17:33:00,
2013-09-02 13:49:00,79.9,76.7,29.64,SSE,157,5.3,-999.0,90,-99.99,,,0.32,Acu-Link.com,2013-09-02 17:49:00,
2013-09-02 14:04:00,80.2,76.7,29.64,SE,135,4.2,-999.0,89,-99.99,,,0.32,Acu-Link.com,2013-09-02 18:04:00,
2013-09-02 14:19:00,79.2,76.3,29.63,SSE,157,2.7,-999.0,91,-99.99,,,0.32,Acu-Link.com,2013-09-02 18:19:00,
2013-09-02 14:34:00,78.6,75.7,29.63,SSW,202,2.7,-999.0,91,-99.99,,,0.32,Acu-Link.com,2013-09-02 18:34:00,
2013-09-02 14:49:00,78.6,75.7,29.63,SE,135,5.3,-999.0,91,-99.99,,,0.32,Acu-Link.com,2013-09-02 18:49:00,
2013-09-02 15:20:00,78.8,73.5,29.62,SW,225,5.3,-999.0,84,-99.99,,,0.32,Acu-Link.com,2013-09-02 19:20:00,
2013-09-02 15:35:00,78.4,73.2,29.62,SSW,202,6.8,-999.0,84,-99.99,,,0.32,Acu-Link.com,2013-09-02 19:35:00,
2013-09-02 15:50:00,79.0,73.4,29.61,SSE,157,2.7,-999.0,83,-99.99,,,0.32,Acu-Link.com,2013-09-02 19:50:00,
2013-09-02 16:05:00,79.5,74.2,29.62,SW,225,4.7,-999.0,84,-99.99,,,0.32,Acu-Link.com,2013-09-02 20:05:00,
2013-09-02 16:20:00,78.8,74.2,29.61,WSW,247,3.2,-999.0,86,-99.99,,,0.32,Acu-Link.com,2013-09-02 20:20:00,
2013-09-02 16:36:00,79.7,75.5,29.61,SSE,157,4.7,-999.0,87,-99.99,,,0.32,Acu-Link.com,2013-09-02 20:36:00,
2013-09-02 16:51:00,79.3,75.1,29.62,SSE,157,4.7,-999.0,87,-99.99,,,0.32,Acu-Link.com,2013-09-02 20:51:00,
2013-09-02 17:06:00,78.8,74.9,29.60,SW,225,2.2,-999.0,88,-99.99,,,0.32,Acu-Link.com,2013-09-02 21:06:00,
2013-09-02 17:21:00,78.8,74.6,29.60,SE,135,2.2,-999.0,87,-99.99,,,0.32,Acu-Link.com,2013-09-02 21:21:00,
2013-09-02 17:36:00,78.6,74.7,29.60,SW,225,1.1,-999.0,88,-99.99,,,0.32,Acu-Link.com,2013-09-02 21:36:00,
2013-09-02 17:51:00,77.9,74.4,29.60,South,180,2.2,-999.0,89,-99.99,,,0.32,Acu-Link.com,2013-09-02 21:51:00,
2013-09-02 18:06:00,77.2,74.0,29.59,West,270,1.1,-999.0,90,-99.99,,,0.32,Acu-Link.com,2013-09-02 22:06:00,
2013-09-02 18:22:00,75.7,73.2,29.58,NNE,22,1.7,-999.0,92,-99.99,,,0.32,Acu-Link.com,2013-09-02 22:22:00,
2013-09-02 18:37:00,75.4,72.9,29.58,ESE,112,1.7,-999.0,92,-99.99,,,0.32,Acu-Link.com,2013-09-02 22:37:00,
2013-09-02 18:52:00,75.0,72.8,29.57,SSE,157,1.7,-999.0,93,-99.99,,,0.32,Acu-Link.com,2013-09-02 22:52:00,
2013-09-02 19:07:00,74.3,72.5,29.59,ESE,112,2.2,-999.0,94,-99.99,,,0.32,Acu-Link.com,2013-09-02 23:07:00,
2013-09-02 19:22:00,74.1,72.3,29.58,SE,135,0.0,-999.0,94,-99.99,,,0.32,Acu-Link.com,2013-09-02 23:22:00,
2013-09-02 19:37:00,73.9,72.1,29.58,North,0,1.1,-999.0,94,-99.99,,,0.32,Acu-Link.com,2013-09-02 23:37:00,
2013-09-02 19:52:00,73.8,72.3,29.60,NW,315,0.0,-999.0,95,-99.99,,,0.32,Acu-Link.com,2013-09-02 23:52:00,
2013-09-02 20:07:00,73.8,72.3,29.59,NW,315,0.0,-999.0,95,-99.99,,,0.32,Acu-Link.com,2013-09-03 00:07:00,
2013-09-02 20:22:00,73.8,72.3,29.59,SSE,157,0.0,-999.0,95,-99.99,,,0.32,Acu-Link.com,2013-09-03 00:22:00,
2013-09-02 20:37:00,73.2,72.0,29.59,SE,135,0.0,-999.0,96,-99.99,,,0.32,Acu-Link.com,2013-09-03 00:37:00,
2013-09-02 20:53:00,73.2,72.3,29.59,ESE,112,0.0,-999.0,97,-99.99,,,0.32,Acu-Link.com,2013-09-03 00:53:00,
2013-09-02 21:08:00,73.0,72.1,29.60,ESE,112,2.2,-999.0,97,-99.99,,,0.32,Acu-Link.com,2013-09-03 01:08:00,
2013-09-02 21:23:00,73.0,72.1,29.61,SSW,202,0.0,-999.0,97,-99.99,,,0.32,Acu-Link.com,2013-09-03 01:23:00,
2013-09-02 21:38:00,73.0,72.1,29.61,South,180,0.0,-999.0,97,-99.99,,,0.32,Acu-Link.com,2013-09-03 01:38:00,
2013-09-02 21:53:00,73.2,72.6,29.61,SSW,202,0.0,-999.0,98,-99.99,,,0.32,Acu-Link.com,2013-09-03 01:53:00,
2013-09-02 22:08:00,73.0,72.4,29.60,WSW,247,0.0,-999.0,98,-99.99,,,0.32,Acu-Link.com,2013-09-03 02:08:00,
2013-09-02 22:23:00,72.7,72.4,29.61,NNW,337,0.0,-999.0,99,-99.99,,,0.32,Acu-Link.com,2013-09-03 02:23:00,
2013-09-02 22:38:00,72.1,71.8,29.60,SE,135,0.0,-999.0,99,-99.99,,,0.32,Acu-Link.com,2013-09-03 02:38:00,
2013-09-02 22:53:00,72.0,71.7,29.60,ESE,112,0.0,-999.0,99,-99.99,,,0.32,Acu-Link.com,2013-09-03 02:53:00,
2013-09-02 23:09:00,72.0,71.7,29.60,SSW,202,0.0,-999.0,99,-99.99,,,0.32,Acu-Link.com,2013-09-03 03:09:00,
2013-09-02 23:24:00,72.0,71.7,29.60,South,180,2.2,-999.0,99,-99.99,,,0.32,Acu-Link.com,2013-09-03 03:24:00,
2013-09-02 23:39:00,72.0,71.7,29.60,South,180,0.0,-999.0,99,-99.99,,,0.32,Acu-Link.com,2013-09-03 03:39:00,
2013-09-02 23:54:00,72.0,71.7,29.60,SE,135,2.2,-999.0,99,-99.99,,,0.32,Acu-Link.com,2013-09-03 03:54:00,